Spokane, Washington
Current Conditions -  °F | °C
As of 5:00 PM on Sunday 23 Nov 2014 (Local Time) from KSFF Reporting Station
Clear Clear  
Wind Chill: 38°   Ceiling: Unl
Heat Index: 42°   Visibility: 10mi
Dew Point: 33°   Wind: 6mph
Humidity: 70%   Direction: NA
Pressure: 30.02"   Gusts: NA
Location:  47.66°N, 117.41°W
Report Text: KSFF 240100Z VRB05KT 10SM CLR 06/01 A3002 RMK AO2 T00560006
Loading
Personal Weather Stations






























Interactive Weather Map New forecast layout! Learn more

10-Day Weather Forecast

Advertisements
Track Severe Weather on mobile